ダッカ の空港の天気 - METARとTAF

シャージャラル国際空港(ダッカ) ( VGHS / DAC ) - バングラデシュ ダッカ
飛行場実況気象(Metar)
観測時間05/29 05:30 BDT (05/28 23:30 UTC)
風向・風速静穏 0m/s
視程3500m
天気現象煙霧
全天の8割程度の雲 雲底高度 300m
少しの雲 雲底高度 760m
全天を覆う雲 雲底高度 3050m
気温28℃
湿度84%
気圧1001hPa
METARVGHS 282330Z 00000KT 3500 HZ BKN010 FEW025CB OVC100 28/25 Q1001 TEMPO TSRA
過去の天気等 Google飛行場航空写真 Wunderground天気予報

過去48時間のMETAR

飛行場予報(TAF)
発表時間: 5/29 05:00 BDT (5/28 23:00 UTC)
予報対象時間: 29日6時 BDT ~ 30日12時 BDT
風向・風速東 3m/s
視程3500m
天気現象煙霧
全天の4割程度の雲 雲底高度 370m
全天の8割程度の雲 雲底高度 3050m
29日6時 BDT ~ 29日11時 BDT に一時的に
風向・風速西北西 13m/s 瞬間風速 18m/s
視程2000m
29日12時 BDT ~ 29日14時 BDT に徐々に
風向・風速東 3m/s
視程4000m
天気現象煙霧
全天の4割程度の雲 雲底高度 460m
全天の8割程度の雲 雲底高度 3050m
29日20時 BDT ~ 29日22時 BDT に徐々に
風向・風速南西 5m/s
視程4000m
天気現象煙霧
全天の4割程度の雲 雲底高度 370m
全天の8割程度の雲 雲底高度 3050m
TAF VGHS 282300Z 2900/3006 10006KT 3500 HZ SCT012 BKN100
TEMPO 2900/2905 29025G35KT 2000 TSRA/RA BKN008 FEW025CB OVC090
BECMG 2906/2908 10006KT 4000 HZ SCT015 BKN100
BECMG 2914/2916 23010KT 4000 HZ SCT012 BKN100